createdAt,value
2023-02-11T00:02:59.073Z,100.00
2023-02-11T00:06:38.802Z,100.00
2023-02-11T00:09:47.989Z,100.00
2023-02-11T00:13:00.008Z,100.00
2023-02-11T00:16:23.447Z,100.00
2023-02-11T00:19:28.579Z,100.00
2023-02-11T00:22:51.096Z,100.00
2023-02-11T00:26:40.993Z,100.00
2023-02-11T00:29:43.935Z,100.00
2023-02-11T00:33:08.039Z,100.00
2023-02-11T00:36:31.437Z,100.00
2023-02-11T00:39:43.331Z,100.00
2023-02-11T00:43:07.274Z,100.00
2023-02-11T00:46:10.811Z,100.00
2023-02-11T00:49:15.973Z,100.00
2023-02-11T00:52:39.916Z,100.00
2023-02-11T00:55:49.409Z,100.00
2023-02-11T00:58:54.024Z,100.00
2023-02-11T01:01:56.966Z,100.00
2023-02-11T01:05:05.579Z,100.00
2023-02-11T01:08:10.270Z,100.00
2023-02-11T01:11:19.694Z,100.00
2023-02-11T01:14:42.747Z,100.00
2023-02-11T01:17:50.436Z,100.00
2023-02-11T01:21:16.606Z,100.00
2023-02-11T01:24:20.983Z,100.00
2023-02-11T01:27:23.486Z,100.00
2023-02-11T01:30:31.772Z,100.00
2023-02-11T01:33:41.217Z,100.00
2023-02-11T01:37:05.987Z,100.00
2023-02-11T01:40:20.449Z,100.00
2023-02-11T01:43:37.815Z,100.00
2023-02-11T01:47:06.456Z,100.00
2023-02-11T01:50:13.257Z,100.00
2023-02-11T01:53:37.332Z,100.00
2023-02-11T01:57:07.503Z,100.00
2023-02-11T02:00:36.694Z,100.00
2023-02-11T02:04:13.480Z,100.00
2023-02-11T02:07:49.809Z,100.00
2023-02-11T02:11:01.127Z,100.00
2023-02-11T02:14:27.051Z,100.00
2023-02-11T02:18:30.184Z,100.00
2023-02-11T02:21:43.567Z,100.00
2023-02-11T02:25:01.187Z,100.00
2023-02-11T02:28:24.970Z,100.00
2023-02-11T02:31:50.592Z,100.00
2023-02-11T02:35:26.520Z,100.00
2023-02-11T02:38:40.889Z,100.00
2023-02-11T02:41:53.659Z,100.00
2023-02-11T02:44:58.467Z,100.00
2023-02-11T02:48:01.930Z,100.00
2023-02-11T02:51:42.822Z,100.00
2023-02-11T02:54:59.806Z,100.00
2023-02-11T02:58:43.127Z,100.00
2023-02-11T03:01:57.923Z,100.00
2023-02-11T03:05:12.233Z,100.00
2023-02-11T03:08:37.846Z,100.00
2023-02-11T03:11:47.690Z,100.00
2023-02-11T03:14:52.795Z,100.00
2023-02-11T03:18:03.224Z,100.00
2023-02-11T03:21:09.306Z,100.00
2023-02-11T03:24:20.840Z,100.00
2023-02-11T03:27:47.819Z,100.00
2023-02-11T03:31:20.620Z,100.00
2023-02-11T03:34:51.445Z,100.00
2023-02-11T03:38:16.450Z,100.00
2023-02-11T03:41:23.542Z,100.00
2023-02-11T03:44:33.414Z,100.00
2023-02-11T03:48:09.233Z,100.00
2023-02-11T03:51:33.689Z,100.00
2023-02-11T03:55:21.071Z,100.00
2023-02-11T03:58:27.567Z,100.00
2023-02-11T04:01:35.960Z,100.00
2023-02-11T04:04:44.115Z,100.00
2023-02-11T04:07:50.978Z,100.00
2023-02-11T04:11:19.060Z,100.00
2023-02-11T04:15:02.025Z,100.00
2023-02-11T04:18:26.950Z,100.00
2023-02-11T04:21:49.891Z,100.00
2023-02-11T04:24:55.464Z,100.00
2023-02-11T04:28:20.081Z,100.00
2023-02-11T04:31:26.305Z,100.00
2023-02-11T04:34:29.809Z,100.00
2023-02-11T04:37:36.228Z,100.00
2023-02-11T04:40:46.682Z,100.00
2023-02-11T04:43:49.964Z,100.00
2023-02-11T04:46:53.629Z,100.00
2023-02-11T04:50:00.595Z,100.00
2023-02-11T04:53:06.310Z,100.00
2023-02-11T04:56:10.567Z,100.00
2023-02-11T04:59:15.116Z,100.00
2023-02-11T05:02:18.940Z,100.00
2023-02-11T05:05:42.598Z,100.00
2023-02-11T05:09:12.382Z,100.00
2023-02-11T05:12:19.002Z,100.00
2023-02-11T05:15:26.988Z,100.00
2023-02-11T05:18:30.339Z,100.00
2023-02-11T05:21:36.311Z,100.00
2023-02-11T05:24:42.911Z,100.00
2023-02-11T05:28:07.356Z,100.00
2023-02-11T05:31:11.542Z,100.00
2023-02-11T05:34:19.334Z,100.00
2023-02-11T05:37:24.555Z,100.00
2023-02-11T05:40:29.267Z,100.00
2023-02-11T05:43:36.592Z,100.00
2023-02-11T05:46:47.254Z,100.00
2023-02-11T05:49:56.410Z,100.00
2023-02-11T05:52:59.842Z,100.00
2023-02-11T05:56:11.997Z,100.00
2023-02-11T05:59:16.780Z,100.00
2023-02-11T06:02:21.341Z,100.00
2023-02-11T06:05:30.718Z,100.00
2023-02-11T06:08:43.052Z,100.00
2023-02-11T06:12:10.619Z,100.00
2023-02-11T06:15:35.682Z,100.00
2023-02-11T06:19:07.736Z,100.00
2023-02-11T06:22:10.634Z,100.00
2023-02-11T06:25:33.910Z,100.00
2023-02-11T06:28:40.024Z,100.00
2023-02-11T06:31:46.000Z,100.00
2023-02-11T06:34:52.162Z,100.00
2023-02-11T06:37:59.822Z,100.00
2023-02-11T06:41:47.997Z,100.00
2023-02-11T06:45:20.723Z,100.00
2023-02-11T06:48:29.347Z,100.00
2023-02-11T06:51:53.155Z,100.00
2023-02-11T06:54:56.032Z,100.00
2023-02-11T06:58:00.273Z,100.00
2023-02-11T07:01:09.100Z,100.00
2023-02-11T07:04:16.956Z,100.00
2023-02-11T07:07:20.570Z,100.00
2023-02-11T07:10:26.519Z,100.00
2023-02-11T07:13:29.112Z,100.00
2023-02-11T07:16:33.346Z,100.00
2023-02-11T07:19:35.958Z,100.00
2023-02-11T07:23:12.526Z,100.00
2023-02-11T07:26:23.293Z,100.00
2023-02-11T07:29:28.085Z,100.00
2023-02-11T07:32:36.270Z,100.00
2023-02-11T07:35:42.543Z,99.99
2023-02-11T07:39:03.071Z,98.66
2023-02-11T07:42:06.655Z,98.73
2023-02-11T07:45:29.846Z,97.39
2023-02-11T07:49:05.906Z,96.57
2023-02-11T07:52:11.416Z,93.11
2023-02-11T07:55:14.750Z,90.84
2023-02-11T07:58:18.153Z,91.51
2023-02-11T08:01:28.363Z,90.21
2023-02-11T08:04:53.958Z,89.69
2023-02-11T08:07:58.575Z,88.28
2023-02-11T08:11:15.888Z,87.62
2023-02-11T08:14:38.635Z,87.77
2023-02-11T08:18:13.967Z,87.58
2023-02-11T08:21:37.904Z,86.62
2023-02-11T08:24:46.937Z,85.38
2023-02-11T08:27:55.309Z,85.01
2023-02-11T08:31:05.724Z,83.63
2023-02-11T08:34:12.016Z,82.91
2023-02-11T08:37:18.337Z,82.80
2023-02-11T08:40:21.642Z,83.56
2023-02-11T08:43:28.090Z,83.62
2023-02-11T08:46:52.111Z,82.98
2023-02-11T08:49:56.598Z,83.63
2023-02-11T08:53:20.257Z,84.76
2023-02-11T08:56:33.708Z,85.43
2023-02-11T08:59:40.152Z,84.03
2023-02-11T09:02:42.741Z,81.58
2023-02-11T09:05:50.578Z,81.71
2023-02-11T09:08:56.554Z,79.95
2023-02-11T09:12:03.608Z,79.94
2023-02-11T09:15:38.975Z,78.80
2023-02-11T09:19:23.554Z,79.36
2023-02-11T09:22:48.666Z,79.24
2023-02-11T09:26:00.103Z,79.42
2023-02-11T09:29:05.136Z,79.20
2023-02-11T09:32:12.476Z,77.49
2023-02-11T09:35:19.601Z,76.37
2023-02-11T09:38:44.254Z,74.45
2023-02-11T09:42:10.838Z,72.70
2023-02-11T09:45:28.758Z,71.83
2023-02-11T09:48:55.729Z,69.65
2023-02-11T09:52:27.272Z,69.66
2023-02-11T09:55:56.069Z,67.53
2023-02-11T09:58:59.648Z,65.45
2023-02-11T10:02:14.540Z,64.15
2023-02-11T10:06:04.028Z,63.30
2023-02-11T10:09:19.058Z,61.74
2023-02-11T10:12:49.847Z,62.66
2023-02-11T10:16:06.820Z,62.57
2023-02-11T10:19:51.703Z,64.47
2023-02-11T10:23:21.553Z,65.59
2023-02-11T10:26:32.310Z,65.00
2023-02-11T10:29:43.477Z,66.50
2023-02-11T10:32:54.738Z,67.97
2023-02-11T10:36:18.662Z,67.66
2023-02-11T10:39:28.154Z,68.36
2023-02-11T10:42:32.663Z,67.92
2023-02-11T10:46:17.734Z,68.35
2023-02-11T10:49:39.432Z,67.71
2023-02-11T10:52:44.358Z,67.72
2023-02-11T10:56:00.020Z,68.30
2023-02-11T10:59:14.010Z,67.96
2023-02-11T11:02:38.824Z,68.17
2023-02-11T11:06:02.919Z,68.07
2023-02-11T11:09:21.892Z,69.02
2023-02-11T11:12:48.988Z,67.78
2023-02-11T11:16:12.163Z,66.64
2023-02-11T11:19:21.834Z,65.19
2023-02-11T11:22:47.461Z,63.07
2023-02-11T11:26:29.271Z,63.60
2023-02-11T11:29:51.491Z,62.30
2023-02-11T11:32:54.738Z,61.27
2023-02-11T11:36:12.861Z,62.24
2023-02-11T11:39:19.550Z,62.71
2023-02-11T11:42:33.915Z,61.77
2023-02-11T11:45:59.543Z,61.20
2023-02-11T11:49:31.054Z,59.23
2023-02-11T11:53:19.348Z,60.82
2023-02-11T11:56:26.440Z,58.47
2023-02-11T11:59:30.530Z,57.03
2023-02-11T12:03:19.301Z,58.34
2023-02-11T12:06:31.384Z,57.35
2023-02-11T12:09:51.285Z,55.80
2023-02-11T12:13:08.021Z,56.16
2023-02-11T12:16:23.437Z,56.83
2023-02-11T12:20:03.810Z,56.33
2023-02-11T12:23:38.728Z,54.92
2023-02-11T12:26:56.654Z,54.43
2023-02-11T12:30:15.857Z,54.71
2023-02-11T12:33:26.974Z,54.58
2023-02-11T12:37:27.880Z,55.64
2023-02-11T12:41:07.202Z,54.46
2023-02-11T12:44:48.480Z,54.02
2023-02-11T12:47:58.264Z,54.58
2023-02-11T12:51:05.562Z,53.99
2023-02-11T12:54:11.068Z,53.73
2023-02-11T12:57:24.749Z,53.66
2023-02-11T13:00:47.692Z,53.41
2023-02-11T13:03:59.179Z,53.54
2023-02-11T13:07:26.161Z,52.11
2023-02-11T13:10:38.319Z,52.95
2023-02-11T13:14:01.823Z,53.50
2023-02-11T13:17:20.165Z,53.63
2023-02-11T13:20:49.372Z,52.67
2023-02-11T13:24:08.497Z,51.61
2023-02-11T13:27:45.963Z,51.70
2023-02-11T13:30:57.601Z,51.06
2023-02-11T13:34:01.306Z,50.05
2023-02-11T13:37:12.927Z,51.10
2023-02-11T13:40:41.055Z,51.19
2023-02-11T13:43:45.589Z,50.26
2023-02-11T13:47:01.529Z,50.89
2023-02-11T13:50:08.459Z,51.00
2023-02-11T13:53:12.357Z,51.61
2023-02-11T13:56:46.338Z,50.90
2023-02-11T13:59:51.030Z,50.22
2023-02-11T14:03:32.278Z,50.61
2023-02-11T14:07:45.537Z,50.81
2023-02-11T14:10:53.167Z,50.94
2023-02-11T14:14:18.178Z,50.40
2023-02-11T14:17:31.631Z,50.01
2023-02-11T14:20:39.718Z,49.86
2023-02-11T14:24:02.335Z,49.33
2023-02-11T14:27:30.678Z,47.44
2023-02-11T14:30:42.830Z,46.32
2023-02-11T14:34:24.520Z,44.83
2023-02-11T14:38:07.562Z,44.04
2023-02-11T14:41:51.496Z,44.89
2023-02-11T14:45:05.241Z,44.60
2023-02-11T14:48:16.052Z,43.94
2023-02-11T14:51:27.850Z,44.36
2023-02-11T14:54:32.253Z,44.41
2023-02-11T14:57:37.688Z,44.78
2023-02-11T15:00:53.881Z,44.61
2023-02-11T15:04:29.220Z,45.06
2023-02-11T15:07:32.735Z,45.31
2023-02-11T15:10:45.632Z,45.61
2023-02-11T15:14:22.681Z,45.46
2023-02-11T15:17:49.215Z,46.30
2023-02-11T15:20:53.339Z,47.21
2023-02-11T15:24:21.987Z,47.84
2023-02-11T15:27:27.392Z,48.18
2023-02-11T15:30:35.448Z,48.60
2023-02-11T15:33:42.624Z,48.82
2023-02-11T15:36:48.268Z,49.44
2023-02-11T15:39:52.941Z,49.77
2023-02-11T15:43:19.607Z,49.75
2023-02-11T15:46:24.304Z,49.97
2023-02-11T15:49:33.410Z,50.43
2023-02-11T15:52:41.764Z,50.88
2023-02-11T15:55:46.490Z,50.86
2023-02-11T15:59:00.333Z,51.35
2023-02-11T16:02:16.905Z,51.80
2023-02-11T16:05:26.862Z,52.15
2023-02-11T16:08:30.000Z,52.35
2023-02-11T16:11:53.766Z,53.05
2023-02-11T16:16:05.790Z,53.20
2023-02-11T16:19:35.251Z,53.59
2023-02-11T16:22:58.511Z,54.15
2023-02-11T16:26:24.962Z,54.27
2023-02-11T16:29:55.682Z,54.50
2023-02-11T16:33:19.244Z,55.01
2023-02-11T16:36:27.436Z,54.75
2023-02-11T16:39:58.413Z,54.68
2023-02-11T16:43:22.996Z,55.28
2023-02-11T16:46:48.224Z,55.47
2023-02-11T16:49:51.551Z,55.53
2023-02-11T16:52:56.918Z,55.76
2023-02-11T16:56:29.059Z,55.61
2023-02-11T16:59:39.817Z,57.85
2023-02-11T17:02:47.176Z,59.40
2023-02-11T17:06:11.788Z,60.65
2023-02-11T17:09:35.439Z,61.13
2023-02-11T17:13:01.774Z,61.98
2023-02-11T17:16:25.295Z,63.03
2023-02-11T17:19:31.492Z,63.60
2023-02-11T17:22:58.229Z,64.02
2023-02-11T17:26:02.085Z,64.85
2023-02-11T17:29:12.356Z,64.54
2023-02-11T17:32:16.547Z,65.17
2023-02-11T17:35:42.291Z,65.37
2023-02-11T17:38:51.336Z,65.78
2023-02-11T17:41:56.671Z,65.76
2023-02-11T17:45:48.124Z,65.91
2023-02-11T17:49:30.645Z,65.96
2023-02-11T17:56:42.651Z,66.68
2023-02-11T17:59:49.064Z,67.26
2023-02-11T18:02:52.295Z,67.86
2023-02-11T18:06:01.194Z,67.46
2023-02-11T18:09:26.817Z,68.16
2023-02-11T18:12:50.232Z,68.29
2023-02-11T18:15:55.589Z,69.21
2023-02-11T18:19:03.604Z,69.07
2023-02-11T18:22:11.995Z,69.39
2023-02-11T18:25:21.635Z,69.14
2023-02-11T18:28:46.112Z,69.40
2023-02-11T18:32:14.413Z,69.17
2023-02-11T18:35:42.422Z,68.13
2023-02-11T18:38:48.753Z,67.22
2023-02-11T18:42:34.786Z,65.90
2023-02-11T18:46:12.966Z,65.02
2023-02-11T18:50:06.755Z,64.44
2023-02-11T18:53:20.110Z,64.39
2023-02-11T18:56:45.306Z,65.11
2023-02-11T19:00:31.207Z,65.40
2023-02-11T19:08:28.733Z,65.95
2023-02-11T19:11:48.856Z,65.68
2023-02-11T19:15:11.782Z,65.38
2023-02-11T19:18:19.076Z,64.67
2023-02-11T19:21:43.997Z,63.75
2023-02-11T19:24:54.338Z,62.93
2023-02-11T19:27:57.822Z,62.58
2023-02-11T19:31:48.872Z,62.84
2023-02-11T19:34:53.575Z,63.31
2023-02-11T19:38:04.987Z,63.53
2023-02-11T19:41:12.289Z,64.24
2023-02-11T19:44:36.407Z,64.59
2023-02-11T19:48:12.973Z,64.50
2023-02-11T19:51:19.250Z,64.49
2023-02-11T19:54:28.874Z,63.99
2023-02-11T19:57:55.837Z,64.20
2023-02-11T20:01:11.212Z,63.86
2023-02-11T20:04:54.833Z,63.86
2023-02-11T20:08:01.318Z,64.00
2023-02-11T20:11:16.318Z,64.50
2023-02-11T20:14:19.431Z,64.70
2023-02-11T20:18:04.735Z,64.74
2023-02-11T20:21:08.799Z,65.34
2023-02-11T20:24:34.636Z,65.23
2023-02-11T20:27:52.854Z,65.84
2023-02-11T20:31:18.684Z,65.53
2023-02-11T20:34:33.334Z,65.54
2023-02-11T20:38:05.654Z,65.63
2023-02-11T20:41:40.122Z,65.81
2023-02-11T20:45:06.128Z,66.19
2023-02-11T20:48:29.387Z,66.54
2023-02-11T20:51:35.123Z,66.64
2023-02-11T20:55:01.706Z,67.05
2023-02-11T20:58:06.940Z,67.23
2023-02-11T21:01:43.417Z,68.03
2023-02-11T21:05:14.985Z,69.21
2023-02-11T21:08:38.051Z,73.24
2023-02-11T21:11:44.028Z,73.86
2023-02-11T21:15:11.486Z,74.34
2023-02-11T21:18:37.319Z,75.29
2023-02-11T21:22:02.067Z,75.75
2023-02-11T21:25:45.548Z,78.01
2023-02-11T21:28:52.259Z,78.53
2023-02-11T21:32:17.779Z,80.15
2023-02-11T21:35:40.526Z,80.97
2023-02-11T21:39:07.176Z,81.67
2023-02-11T21:42:30.194Z,82.25
2023-02-11T21:45:34.994Z,82.97
2023-02-11T21:49:11.428Z,83.34
2023-02-11T21:52:14.364Z,83.39
2023-02-11T21:55:38.528Z,83.01
2023-02-11T21:58:47.459Z,83.00
2023-02-11T22:02:11.174Z,83.73
2023-02-11T22:05:35.107Z,83.10
2023-02-11T22:08:39.618Z,84.03
2023-02-11T22:11:50.234Z,84.61
2023-02-11T22:15:33.271Z,85.23
2023-02-11T22:18:38.272Z,85.49
2023-02-11T22:22:03.038Z,87.02
2023-02-11T22:25:26.421Z,87.68
2023-02-11T22:28:50.098Z,88.32
2023-02-11T22:31:55.489Z,88.61
2023-02-11T22:35:18.643Z,88.99
2023-02-11T22:38:43.470Z,88.78
2023-02-11T22:41:47.742Z,88.97
2023-02-11T22:45:11.813Z,89.81
2023-02-11T22:48:17.144Z,90.18
2023-02-11T22:51:41.112Z,90.21
2023-02-11T22:54:51.384Z,90.87
2023-02-11T22:57:57.323Z,91.44
2023-02-11T23:01:05.711Z,91.43
2023-02-11T23:04:14.074Z,91.63
2023-02-11T23:07:20.474Z,92.15
2023-02-11T23:10:24.037Z,92.70
2023-02-11T23:13:30.693Z,93.06
2023-02-11T23:16:35.565Z,93.50
2023-02-11T23:19:42.409Z,93.89
2023-02-11T23:23:13.939Z,93.79
2023-02-11T23:26:26.348Z,93.82
2023-02-11T23:29:36.149Z,94.01
2023-02-11T23:32:40.960Z,95.33
2023-02-11T23:36:05.479Z,95.81
2023-02-11T23:39:15.942Z,95.88
2023-02-11T23:42:21.788Z,96.43
2023-02-11T23:45:52.865Z,97.11
2023-02-11T23:49:21.018Z,96.37
2023-02-11T23:52:31.949Z,96.05
2023-02-11T23:55:39.969Z,96.67
2023-02-11T23:59:04.795Z,96.74
